Time;durP1;ratioP1;P1;durP2;ratioP2;P2;SDS_P1;SDS_P2;PMS_P1;PMS_P2;Temp;Humidity;BMP_temperature;BMP_pressure;BME280_temperature;BME280_humidity;BME280_pressure;Samples;Min_cycle;Max_cycle;Signal;HPM_P1;HPM_P2
2021/12/03 00:01:28;;;;;;;8.83;1.90;;;0.70;99.90;;;;;;4970936;28;20125;-79
2021/12/03 00:03:53;;;;;;;3.83;1.70;;;0.70;99.90;;;;;;4971846;28;20485;-78
2021/12/03 00:06:19;;;;;;;7.10;2.30;;;0.70;99.90;;;;;;4963364;28;20053;-79
2021/12/03 00:08:45;;;;;;;5.80;2.00;;;0.60;99.90;;;;;;4955767;28;20090;-79
2021/12/03 00:11:12;;;;;;;4.63;1.83;;;0.60;99.90;;;;;;4979201;28;20045;-79
2021/12/03 00:13:39;;;;;;;3.93;1.77;;;0.60;99.90;;;;;;4990551;28;20077;-79
2021/12/03 00:16:05;;;;;;;7.07;2.10;;;0.60;99.90;;;;;;4991097;28;20066;-79
2021/12/03 00:18:32;;;;;;;5.87;1.90;;;0.60;99.90;;;;;;4978351;28;21638;-79
2021/12/03 00:21:01;;;;;;;3.80;1.40;;;0.50;99.90;;;;;;4971596;28;20038;-79
2021/12/03 00:23:28;;;;;;;5.10;1.80;;;0.50;99.90;;;;;;4971290;28;20538;-78
2021/12/03 00:25:54;;;;;;;6.37;1.80;;;0.50;99.90;;;;;;4971424;28;20050;-78
2021/12/03 00:28:19;;;;;;;5.93;1.60;;;0.50;99.90;;;;;;4971268;28;20062;-79
2021/12/03 00:30:45;;;;;;;8.03;1.67;;;0.50;99.90;;;;;;4976479;28;20035;-79
2021/12/03 00:33:12;;;;;;;4.90;1.80;;;0.50;99.90;;;;;;4983512;28;20619;-78
2021/12/03 00:35:37;;;;;;;3.33;1.90;;;0.50;99.90;;;;;;4982523;28;20047;-79
2021/12/03 00:38:04;;;;;;;6.70;1.90;;;0.50;99.90;;;;;;4988226;28;20043;-79
2021/12/03 00:40:34;;;;;;;6.43;1.90;;;0.50;99.90;;;;;;4973585;28;20055;-79
2021/12/03 00:43:00;;;;;;;4.50;1.97;;;0.50;99.90;;;;;;4972189;28;20051;-79
2021/12/03 00:45:26;;;;;;;5.23;1.73;;;0.50;99.90;;;;;;4986339;28;20412;-78
2021/12/03 00:47:52;;;;;;;3.87;1.80;;;0.40;99.90;;;;;;4990078;28;20049;-79
2021/12/03 00:50:22;;;;;;;3.57;1.80;;;0.40;99.90;;;;;;4977102;28;20034;-80
2021/12/03 00:52:48;;;;;;;5.80;2.30;;;0.40;99.90;;;;;;4984447;28;20039;-79
2021/12/03 00:55:15;;;;;;;8.17;3.10;;;0.40;99.90;;;;;;4989671;28;20038;-79
2021/12/03 00:57:41;;;;;;;4.57;2.00;;;0.40;99.90;;;;;;4981054;28;20050;-79
2021/12/03 01:00:17;;;;;;;6.13;2.17;;;0.40;99.90;;;;;;4971428;28;20093;-79
2021/12/03 01:02:43;;;;;;;3.70;2.07;;;0.40;99.90;;;;;;4990944;28;20050;-79
2021/12/03 01:05:09;;;;;;;8.03;1.90;;;0.40;99.90;;;;;;4978073;28;20038;-79
2021/12/03 01:07:35;;;;;;;9.30;1.97;;;0.40;99.90;;;;;;4980096;28;20493;-79
2021/12/03 01:10:01;;;;;;;6.90;2.20;;;0.40;99.90;;;;;;4980574;28;20046;-79
2021/12/03 01:12:26;;;;;;;4.57;1.67;;;0.40;99.90;;;;;;4980873;28;20038;-79
2021/12/03 01:14:52;;;;;;;4.37;1.70;;;0.40;99.90;;;;;;4976654;28;20045;-79
2021/12/03 01:17:18;;;;;;;3.53;1.90;;;0.40;99.90;;;;;;4985015;28;20069;-80
2021/12/03 01:19:43;;;;;;;4.33;1.70;;;0.40;99.90;;;;;;4979514;28;20039;-79
2021/12/03 01:22:09;;;;;;;5.50;1.90;;;0.40;99.90;;;;;;4982070;28;20718;-79
2021/12/03 01:24:35;;;;;;;4.37;1.70;;;0.40;99.90;;;;;;4982284;28;20064;-79
2021/12/03 01:27:00;;;;;;;5.83;2.00;;;0.40;99.90;;;;;;4981901;28;20041;-79
2021/12/03 01:29:26;;;;;;;3.17;1.63;;;0.40;99.90;;;;;;4984715;28;20496;-79
2021/12/03 01:31:53;;;;;;;7.83;2.47;;;0.40;99.90;;;;;;4979752;28;20088;-79
2021/12/03 01:34:19;;;;;;;6.27;1.80;;;0.40;99.90;;;;;;4981004;28;20404;-79
2021/12/03 01:36:45;;;;;;;3.90;2.00;;;0.40;99.90;;;;;;4972201;28;20049;-79
2021/12/03 01:39:12;;;;;;;5.57;2.00;;;0.40;99.90;;;;;;4986293;28;20411;-79
2021/12/03 01:41:38;;;;;;;7.53;2.10;;;0.40;99.90;;;;;;4981003;28;20078;-79
2021/12/03 01:44:04;;;;;;;4.47;2.10;;;0.40;99.90;;;;;;4983115;28;20535;-79
2021/12/03 01:46:31;;;;;;;3.53;1.93;;;0.40;99.90;;;;;;4980342;28;20042;-79
2021/12/03 01:48:58;;;;;;;7.53;2.03;;;0.40;99.90;;;;;;4975172;28;20061;-79
2021/12/03 01:51:24;;;;;;;4.87;2.03;;;0.50;99.90;;;;;;4989828;28;20046;-79
2021/12/03 01:53:51;;;;;;;4.57;2.10;;;0.50;99.90;;;;;;4981543;28;20042;-79
2021/12/03 01:56:18;;;;;;;4.57;2.10;;;0.50;99.90;;;;;;4980801;28;20042;-79
2021/12/03 01:58:47;;;;;;;3.93;1.90;;;0.50;99.90;;;;;;4987482;28;20491;-79
2021/12/03 02:01:15;;;;;;;4.20;1.90;;;0.50;99.90;;;;;;4986715;28;20087;-79
2021/12/03 02:03:43;;;;;;;6.90;2.20;;;0.50;99.90;;;;;;4985095;28;20240;-79
2021/12/03 02:06:12;;;;;;;7.40;2.17;;;0.50;99.90;;;;;;4983400;28;20042;-79
2021/12/03 02:08:38;;;;;;;4.10;2.07;;;0.60;99.90;;;;;;4981983;28;20038;-79
2021/12/03 02:11:06;;;;;;;4.30;2.10;;;0.60;99.90;;;;;;4979342;28;20030;-80
2021/12/03 02:13:33;;;;;;;7.90;2.07;;;0.60;99.90;;;;;;4982789;28;20519;-79
2021/12/03 02:15:59;;;;;;;5.20;2.27;;;0.60;99.90;;;;;;4987119;28;20050;-79
2021/12/03 02:18:25;;;;;;;5.77;2.20;;;0.60;99.90;;;;;;4984929;28;20507;-79
2021/12/03 02:20:56;;;;;;;4.83;2.23;;;0.60;99.90;;;;;;4986312;28;20039;-79
2021/12/03 02:23:23;;;;;;;4.70;2.03;;;0.70;99.90;;;;;;4979613;28;20114;-79
2021/12/03 02:25:49;;;;;;;9.37;2.20;;;0.70;99.90;;;;;;4975805;28;20054;-79
2021/12/03 02:28:17;;;;;;;7.93;2.53;;;0.70;99.90;;;;;;4987600;28;20042;-79
2021/12/03 02:30:43;;;;;;;8.93;2.40;;;0.70;99.90;;;;;;4976608;28;20056;-79
2021/12/03 02:33:09;;;;;;;6.13;2.83;;;0.70;99.90;;;;;;4973822;28;20035;-79
2021/12/03 02:35:39;;;;;;;7.03;2.93;;;0.80;99.90;;;;;;4961546;28;20049;-79
2021/12/03 02:38:05;;;;;;;5.37;3.10;;;0.80;99.90;;;;;;4978869;28;20081;-79
2021/12/03 02:40:31;;;;;;;6.83;3.80;;;0.80;99.90;;;;;;4981462;28;20042;-79
2021/12/03 02:42:56;;;;;;;10.10;4.20;;;0.80;99.90;;;;;;4982617;28;20475;-79
2021/12/03 02:45:22;;;;;;;13.23;4.63;;;0.80;99.90;;;;;;4987825;28;20038;-79
2021/12/03 02:47:48;;;;;;;14.30;5.77;;;0.90;99.90;;;;;;4978375;28;20180;-80
2021/12/03 02:50:14;;;;;;;13.27;6.47;;;0.90;99.90;;;;;;4983140;28;20114;-80
2021/12/03 02:52:41;;;;;;;13.80;7.40;;;0.90;99.90;;;;;;4988441;28;20153;-79
2021/12/03 02:55:07;;;;;;;13.00;7.10;;;0.90;99.90;;;;;;4974172;28;20047;-80
2021/12/03 02:57:33;;;;;;;12.43;6.80;;;0.90;99.90;;;;;;4981487;28;20034;-80
2021/12/03 02:59:59;;;;;;;13.30;7.37;;;0.90;99.90;;;;;;4980790;28;20046;-79
2021/12/03 03:02:24;;;;;;;14.87;7.07;;;0.90;99.90;;;;;;4989246;28;20193;-79
2021/12/03 03:04:52;;;;;;;12.23;7.07;;;0.90;99.90;;;;;;4985171;28;20042;-79
2021/12/03 03:07:18;;;;;;;14.57;8.30;;;0.90;99.90;;;;;;4976848;28;20053;-79
2021/12/03 03:09:44;;;;;;;15.77;8.73;;;1.00;99.90;;;;;;4986791;28;20049;-80
2021/12/03 03:12:11;;;;;;;17.43;9.30;;;1.00;99.90;;;;;;4984254;28;20047;-79
2021/12/03 03:14:47;;;;;;;22.33;13.13;;;1.10;99.90;;;;;;4982178;28;20037;-79
2021/12/03 03:17:13;;;;;;;20.93;11.83;;;1.10;99.90;;;;;;4996064;28;20034;-79
2021/12/03 03:19:38;;;;;;;21.17;13.07;;;1.10;99.90;;;;;;4984645;28;20113;-79
2021/12/03 03:22:04;;;;;;;27.20;14.27;;;1.10;99.90;;;;;;4979483;28;20076;-79
2021/12/03 03:24:30;;;;;;;24.20;14.83;;;1.10;99.90;;;;;;4983307;28;20037;-79
2021/12/03 03:26:56;;;;;;;26.33;16.03;;;1.00;99.90;;;;;;4986730;28;20038;-79
2021/12/03 03:29:22;;;;;;;27.03;17.23;;;1.10;99.90;;;;;;4976820;28;20038;-79
2021/12/03 03:31:48;;;;;;;29.43;17.23;;;1.00;99.90;;;;;;4980964;28;20041;-79
2021/12/03 03:34:13;;;;;;;29.77;19.30;;;1.10;99.90;;;;;;4961930;28;20056;-79
2021/12/03 03:36:42;;;;;;;37.37;20.80;;;1.10;99.90;;;;;;4982838;28;20097;-79
2021/12/03 03:39:11;;;;;;;36.57;20.73;;;1.10;99.90;;;;;;4981559;28;20122;-79
2021/12/03 03:41:37;;;;;;;34.07;22.27;;;1.00;99.90;;;;;;4977350;28;20114;-80
2021/12/03 03:44:03;;;;;;;37.23;23.03;;;1.10;99.90;;;;;;4987659;28;20121;-79
2021/12/03 03:46:29;;;;;;;33.97;22.30;;;1.10;99.90;;;;;;4983510;28;20111;-79
2021/12/03 03:48:55;;;;;;;35.37;23.83;;;1.10;99.90;;;;;;4963160;28;20474;-79
2021/12/03 03:51:21;;;;;;;38.40;23.60;;;1.10;99.90;;;;;;4986558;28;20415;-79
2021/12/03 03:53:47;;;;;;;41.50;24.93;;;1.10;99.90;;;;;;4987831;28;20086;-79
2021/12/03 03:56:13;;;;;;;37.13;25.23;;;1.10;99.90;;;;;;4980559;28;20587;-80
2021/12/03 03:58:39;;;;;;;35.60;23.87;;;1.10;99.90;;;;;;4985350;28;20120;-79
2021/12/03 04:01:05;;;;;;;34.80;23.63;;;1.00;99.90;;;;;;4980258;28;20508;-80
2021/12/03 04:03:32;;;;;;;34.70;23.67;;;1.10;99.90;;;;;;4976442;28;20046;-79
2021/12/03 04:05:59;;;;;;;33.10;22.63;;;1.10;99.90;;;;;;4976590;28;20039;-79
2021/12/03 04:08:28;;;;;;;36.50;23.70;;;1.00;99.90;;;;;;4985188;28;20468;-79
2021/12/03 04:10:55;;;;;;;35.63;22.73;;;1.10;99.90;;;;;;4981074;28;20043;-79
2021/12/03 04:13:21;;;;;;;33.03;22.73;;;1.00;99.90;;;;;;4964228;28;20077;-79
2021/12/03 04:15:48;;;;;;;35.80;23.17;;;1.10;99.90;;;;;;4984332;28;20039;-79
2021/12/03 04:18:13;;;;;;;32.10;21.77;;;1.10;99.90;;;;;;4963959;28;20076;-79
2021/12/03 04:20:39;;;;;;;34.90;23.17;;;1.10;99.90;;;;;;4974331;28;20074;-79
2021/12/03 04:23:05;;;;;;;31.07;22.20;;;1.00;99.90;;;;;;4973162;28;20069;-79
2021/12/03 04:25:30;;;;;;;33.10;22.83;;;1.10;99.90;;;;;;4980740;28;20042;-79
2021/12/03 04:27:56;;;;;;;30.93;21.23;;;1.10;99.90;;;;;;4973294;28;20082;-79
2021/12/03 04:30:24;;;;;;;31.03;21.60;;;1.10;99.90;;;;;;4983565;28;20038;-79
2021/12/03 04:32:51;;;;;;;29.47;19.53;;;1.10;99.90;;;;;;4977763;28;20113;-79
2021/12/03 04:35:17;;;;;;;31.47;21.20;;;1.10;99.90;;;;;;4976838;28;20054;-79
2021/12/03 04:37:44;;;;;;;31.63;19.80;;;1.10;99.90;;;;;;4986361;28;20121;-79
2021/12/03 04:40:12;;;;;;;26.77;19.47;;;1.10;99.90;;;;;;4967532;28;20133;-79
2021/12/03 04:42:38;;;;;;;29.47;20.30;;;1.10;99.90;;;;;;4988787;28;20552;-79
2021/12/03 04:45:06;;;;;;;30.37;20.10;;;1.00;99.90;;;;;;4977967;28;20121;-78
2021/12/03 04:47:32;;;;;;;30.17;20.60;;;1.00;99.90;;;;;;4973047;28;20043;-79
2021/12/03 04:49:58;;;;;;;29.03;20.33;;;1.00;99.90;;;;;;4983993;28;20655;-78
2021/12/03 04:52:23;;;;;;;26.30;19.80;;;1.00;99.90;;;;;;4980004;28;20038;-79
2021/12/03 04:54:49;;;;;;;31.23;19.90;;;0.90;99.90;;;;;;4973546;28;20086;-79
2021/12/03 04:57:14;;;;;;;28.93;18.87;;;0.90;99.90;;;;;;4990362;28;20400;-79
2021/12/03 04:59:40;;;;;;;25.27;19.33;;;0.90;99.90;;;;;;4980606;28;20036;-78
2021/12/03 05:02:06;;;;;;;24.50;17.97;;;0.90;99.90;;;;;;4983930;28;20035;-78
2021/12/03 05:04:37;;;;;;;26.93;19.10;;;0.90;99.90;;;;;;4981894;28;20030;-78
2021/12/03 05:09:33;;;;;;;27.53;18.53;;;0.90;99.90;;;;;;4980532;28;20077;-78
2021/12/03 05:12:00;;;;;;;25.73;17.57;;;0.90;99.90;;;;;;4976248;28;20509;-78
2021/12/03 05:14:26;;;;;;;27.00;17.87;;;0.90;99.90;;;;;;4979854;28;20409;-78
2021/12/03 05:16:51;;;;;;;26.13;18.83;;;0.90;99.90;;;;;;4984164;28;20109;-78
2021/12/03 05:19:17;;;;;;;26.03;18.50;;;0.90;99.90;;;;;;4973413;28;20039;-79
2021/12/03 05:21:44;;;;;;;23.53;18.00;;;0.90;99.90;;;;;;4971847;28;20050;-78
2021/12/03 05:24:11;;;;;;;27.37;18.33;;;0.90;99.90;;;;;;4967299;28;20045;-78
2021/12/03 05:26:38;;;;;;;26.23;18.13;;;0.90;99.90;;;;;;4973274;28;20051;-78
2021/12/03 05:29:05;;;;;;;30.17;18.93;;;0.90;99.90;;;;;;4977697;28;20450;-78
2021/12/03 05:31:31;;;;;;;25.67;17.77;;;0.90;99.90;;;;;;4971684;28;20096;-78
2021/12/03 05:33:58;;;;;;;22.07;17.20;;;0.90;99.90;;;;;;4984094;28;20480;-78
2021/12/03 05:36:24;;;;;;;27.83;18.73;;;0.90;99.90;;;;;;4985565;28;20088;-78
2021/12/03 05:38:49;;;;;;;24.23;18.23;;;1.00;99.90;;;;;;4986183;28;20046;-78
2021/12/03 05:41:16;;;;;;;24.97;18.43;;;0.90;99.90;;;;;;4976944;28;20041;-78
2021/12/03 05:43:42;;;;;;;27.87;18.80;;;0.90;99.90;;;;;;4984963;28;20046;-79
2021/12/03 05:46:08;;;;;;;24.93;18.37;;;1.00;99.90;;;;;;4977926;28;20205;-79
2021/12/03 05:48:34;;;;;;;28.70;18.93;;;1.00;99.90;;;;;;4978874;28;20049;-79
2021/12/03 05:50:59;;;;;;;26.10;18.03;;;1.00;99.90;;;;;;4977480;28;20045;-79
2021/12/03 05:53:25;;;;;;;23.93;18.83;;;0.90;99.90;;;;;;4983902;28;20038;-80
2021/12/03 05:55:51;;;;;;;25.77;18.07;;;1.00;99.90;;;;;;4980384;28;20093;-79
2021/12/03 05:58:18;;;;;;;26.13;18.80;;;1.00;99.90;;;;;;4991413;28;20039;-79
2021/12/03 06:00:44;;;;;;;28.27;18.47;;;1.00;99.90;;;;;;4990327;28;20097;-79
2021/12/03 06:03:11;;;;;;;29.63;18.70;;;1.00;99.90;;;;;;4987363;28;20547;-79
2021/12/03 06:05:40;;;;;;;28.43;20.67;;;1.10;99.90;;;;;;4977441;28;20035;-79
2021/12/03 06:08:05;;;;;;;27.77;20.17;;;1.10;99.90;;;;;;4983551;28;20042;-79
2021/12/03 06:10:31;;;;;;;23.23;18.43;;;1.10;99.90;;;;;;4991138;28;20038;-78
2021/12/03 06:12:57;;;;;;;30.80;19.93;;;1.10;99.90;;;;;;4985619;28;20496;-79
2021/12/03 06:15:22;;;;;;;27.37;19.03;;;1.20;99.90;;;;;;4963177;28;20519;-79
2021/12/03 06:17:48;;;;;;;29.60;20.83;;;1.10;99.90;;;;;;4984554;28;20071;-79
2021/12/03 06:20:16;;;;;;;29.03;20.33;;;1.20;99.90;;;;;;4981792;28;20496;-79
2021/12/03 06:22:42;;;;;;;28.33;20.43;;;1.20;99.90;;;;;;4972571;28;20045;-79
2021/12/03 06:25:09;;;;;;;29.83;20.03;;;1.20;99.90;;;;;;4978165;28;20082;-79
2021/12/03 06:27:36;;;;;;;29.73;20.30;;;1.20;99.90;;;;;;4990084;28;20089;-78
2021/12/03 06:30:03;;;;;;;28.33;19.90;;;1.20;99.90;;;;;;4988918;28;20038;-78
2021/12/03 06:32:29;;;;;;;28.23;19.33;;;1.30;99.90;;;;;;4988511;28;20042;-78
2021/12/03 06:34:55;;;;;;;28.67;19.03;;;1.30;99.90;;;;;;4978338;28;20126;-78
2021/12/03 06:37:20;;;;;;;29.23;18.60;;;1.30;99.90;;;;;;4995182;28;20097;-78
2021/12/03 06:39:46;;;;;;;24.43;17.77;;;1.30;99.90;;;;;;4983625;28;20098;-78
2021/12/03 06:42:12;;;;;;;28.27;16.77;;;1.40;99.90;;;;;;4990091;28;20411;-78
2021/12/03 06:44:37;;;;;;;24.07;16.73;;;1.40;99.90;;;;;;4984051;28;20066;-77
2021/12/03 06:47:03;;;;;;;26.27;17.13;;;1.40;99.90;;;;;;4986837;28;20042;-77
2021/12/03 06:49:30;;;;;;;23.20;16.83;;;1.50;99.90;;;;;;4984549;28;20027;-76
2021/12/03 06:52:01;;;;;;;26.00;16.30;;;1.50;99.90;;;;;;4979680;28;20062;-76
2021/12/03 06:54:30;;;;;;;23.37;16.30;;;1.50;99.90;;;;;;4983812;28;20031;-77
2021/12/03 06:56:55;;;;;;;24.03;15.93;;;1.50;99.90;;;;;;4985807;28;20527;-77
2021/12/03 06:59:23;;;;;;;20.13;15.10;;;1.60;99.90;;;;;;4974315;28;20083;-76
2021/12/03 07:01:50;;;;;;;22.93;14.80;;;1.60;99.90;;;;;;4982899;28;20456;-77
2021/12/03 07:04:16;;;;;;;23.97;14.70;;;1.60;99.90;;;;;;4969768;28;20165;-77
2021/12/03 07:06:42;;;;;;;21.50;13.87;;;1.70;99.90;;;;;;4991190;28;20050;-77
2021/12/03 07:09:08;;;;;;;19.87;13.63;;;1.70;99.90;;;;;;4976401;28;20037;-76
2021/12/03 07:11:34;;;;;;;22.53;13.93;;;1.70;99.90;;;;;;4982467;28;20039;-76
2021/12/03 07:14:00;;;;;;;19.17;13.60;;;1.70;99.90;;;;;;4984175;28;20082;-77
2021/12/03 07:16:26;;;;;;;20.73;13.40;;;1.70;99.90;;;;;;4974225;28;20465;-77
2021/12/03 07:18:52;;;;;;;21.70;13.33;;;1.70;99.90;;;;;;4989651;28;20047;-76
2021/12/03 07:21:18;;;;;;;20.30;12.57;;;1.70;99.90;;;;;;4974050;28;20399;-76
2021/12/03 07:23:44;;;;;;;19.70;13.20;;;1.70;99.90;;;;;;4977485;28;20047;-78
2021/12/03 07:26:09;;;;;;;19.00;11.40;;;1.70;99.90;;;;;;4971931;28;20042;-77
2021/12/03 07:28:35;;;;;;;21.60;11.93;;;1.70;99.90;;;;;;4975746;28;20046;-76
2021/12/03 07:31:01;;;;;;;17.40;10.93;;;1.70;99.90;;;;;;4985615;28;20033;-76
2021/12/03 07:33:31;;;;;;;19.97;10.37;;;1.70;99.90;;;;;;4988670;28;20552;-76
2021/12/03 07:35:57;;;;;;;15.10;10.40;;;1.70;99.90;;;;;;4975882;28;20047;-77
2021/12/03 07:38:22;;;;;;;16.13;9.80;;;1.80;99.90;;;;;;4987874;28;20496;-78
2021/12/03 07:40:49;;;;;;;13.93;9.90;;;1.80;99.90;;;;;;4979905;28;20079;-77
2021/12/03 07:43:17;;;;;;;13.77;9.40;;;1.80;99.90;;;;;;4975690;28;20500;-76
2021/12/03 07:45:47;;;;;;;15.80;9.07;;;1.90;99.90;;;;;;4972302;28;20039;-77
2021/12/03 07:48:13;;;;;;;13.33;8.93;;;1.90;99.90;;;;;;4981836;28;20390;-77
2021/12/03 07:50:41;;;;;;;13.43;8.07;;;1.90;99.90;;;;;;4974550;28;20153;-77
2021/12/03 07:53:07;;;;;;;11.97;7.83;;;1.80;99.90;;;;;;4974642;28;20045;-76
2021/12/03 07:55:33;;;;;;;15.87;7.50;;;1.90;99.90;;;;;;4978400;28;20077;-76
2021/12/03 07:57:59;;;;;;;12.83;7.47;;;1.90;99.90;;;;;;4986711;28;20125;-75
2021/12/03 08:00:25;;;;;;;12.20;7.13;;;1.90;99.90;;;;;;4985540;28;20121;-77
2021/12/03 08:02:51;;;;;;;12.40;7.30;;;1.90;99.90;;;;;;4964055;28;20499;-76
2021/12/03 08:05:17;;;;;;;12.13;7.27;;;2.00;99.90;;;;;;4959003;28;20054;-78
2021/12/03 08:07:46;;;;;;;13.10;7.07;;;2.00;99.90;;;;;;4982281;28;20405;-76
2021/12/03 08:10:13;;;;;;;10.10;7.17;;;2.00;99.90;;;;;;4978437;28;20046;-76
2021/12/03 08:12:43;;;;;;;14.73;6.80;;;2.00;99.90;;;;;;4973893;28;20468;-76
2021/12/03 08:15:09;;;;;;;13.10;6.70;;;2.00;99.90;;;;;;4982052;28;20042;-77
2021/12/03 08:17:35;;;;;;;10.37;6.00;;;2.10;99.90;;;;;;4984437;28;20526;-77
2021/12/03 08:20:01;;;;;;;12.20;6.83;;;2.10;99.90;;;;;;4978625;28;20049;-77
2021/12/03 08:22:27;;;;;;;11.03;6.00;;;2.20;99.90;;;;;;4979067;28;20034;-77
2021/12/03 08:24:52;;;;;;;11.90;6.27;;;2.20;99.90;;;;;;4989616;28;20137;-77
2021/12/03 08:27:18;;;;;;;13.50;6.03;;;2.20;99.90;;;;;;4982180;28;20034;-77
2021/12/03 08:29:43;;;;;;;11.77;6.30;;;2.20;99.90;;;;;;4972689;28;20053;-77
2021/12/03 08:32:12;;;;;;;15.00;6.70;;;2.30;99.90;;;;;;4975775;28;20049;-76
2021/12/03 08:34:38;;;;;;;15.00;7.37;;;2.30;99.90;;;;;;4976426;28;20436;-76
2021/12/03 08:37:06;;;;;;;12.77;6.73;;;2.30;99.90;;;;;;4980204;28;20043;-76
2021/12/03 08:39:32;;;;;;;12.87;6.60;;;2.40;99.90;;;;;;4978663;28;20046;-76
2021/12/03 08:41:58;;;;;;;13.90;6.63;;;2.40;99.90;;;;;;5006047;28;20456;-75
2021/12/03 08:44:24;;;;;;;16.73;7.25;;;2.40;99.90;;;;;;5004161;28;20049;-75
2021/12/03 08:46:59;;;;;;;11.10;7.47;;;2.50;99.90;;;;;;4972164;28;20417;-75
2021/12/03 08:49:49;;;;;;;17.40;8.00;;;2.50;99.90;;;;;;4979346;28;20048;-76
2021/12/03 08:54:54;;;;;;;16.43;8.50;;;2.60;99.90;;;;;;4979912;28;20130;-76
2021/12/03 08:57:23;;;;;;;16.25;8.35;;;2.60;99.90;;;;;;4974487;28;20035;-75
2021/12/03 08:59:53;;;;;;;14.73;8.95;;;2.60;99.90;;;;;;4970773;28;20482;-75
2021/12/03 09:02:19;;;;;;;14.60;8.38;;;2.60;99.90;;;;;;4961409;28;20100;-75
2021/12/03 09:04:45;;;;;;;17.88;8.93;;;2.60;99.90;;;;;;4984677;28;20133;-76
2021/12/03 09:07:11;;;;;;;19.45;9.55;;;2.60;99.90;;;;;;4978118;28;20449;-76
2021/12/03 09:09:37;;;;;;;17.65;10.32;;;2.60;99.90;;;;;;4980798;28;20113;-76
2021/12/03 09:12:03;;;;;;;23.92;10.90;;;2.60;99.90;;;;;;4998981;28;20488;-76
2021/12/03 09:22:40;;;;;;;21.67;11.05;;;2.70;99.90;;;;;;4952118;28;20042;-75
2021/12/03 09:25:09;;;;;;;21.80;12.02;;;2.70;99.90;;;;;;4981137;28;20039;-75
2021/12/03 09:27:35;;;;;;;26.67;13.10;;;2.70;99.90;;;;;;4983438;28;20043;-75
2021/12/03 09:30:06;;;;;;;22.00;13.45;;;2.70;99.90;;;;;;4977907;28;20039;-75
2021/12/03 09:32:33;;;;;;;28.80;14.50;;;2.80;99.90;;;;;;4982373;28;20050;-76
2021/12/03 09:34:59;;;;;;;29.08;13.82;;;2.70;99.90;;;;;;4975960;28;20051;-75
2021/12/03 09:37:25;;;;;;;29.08;14.68;;;2.80;99.90;;;;;;4994026;28;20063;-75
2021/12/03 09:39:51;;;;;;;25.55;13.90;;;2.80;99.90;;;;;;4984279;28;20081;-75
2021/12/03 09:42:21;;;;;;;29.20;14.35;;;2.80;99.90;;;;;;4973619;28;20044;-76
2021/12/03 09:44:50;;;;;;;28.50;15.13;;;2.90;99.90;;;;;;4998890;28;20038;-76
2021/12/03 09:47:17;;;;;;;26.08;14.73;;;2.90;99.90;;;;;;4975959;28;20075;-77
2021/12/03 09:49:44;;;;;;;25.60;14.47;;;2.90;99.90;;;;;;4993404;28;20113;-76
2021/12/03 09:52:29;;;;;;;26.10;14.55;;;3.00;99.90;;;;;;4993322;28;20047;-75
2021/12/03 09:55:03;;;;;;;22.92;13.63;;;3.00;99.90;;;;;;4959498;28;20133;-75
2021/12/03 09:57:33;;;;;;;23.50;13.95;;;3.00;99.90;;;;;;4973930;28;20118;-75
2021/12/03 10:03:10;;;;;;;25.02;14.23;;;3.10;99.90;;;;;;4980139;28;20069;-77
2021/12/03 10:05:37;;;;;;;23.42;13.38;;;3.20;99.90;;;;;;4970140;28;20124;-75
2021/12/03 10:13:41;;;;;;;20.02;11.75;;;3.20;99.90;;;;;;4978735;28;19918;-76
2021/12/03 10:18:56;;;;;;;20.80;10.93;;;3.30;99.90;;;;;;4991959;28;20046;-76
2021/12/03 10:30:07;;;;;;;22.67;11.90;;;3.40;99.90;;;;;;4979561;28;20046;-77
2021/12/03 10:43:21;;;;;;;19.75;9.77;;;3.40;99.90;;;;;;4991000;28;20050;-75
2021/12/03 10:49:25;;;;;;;19.13;9.25;;;3.40;99.90;;;;;;4992674;28;20049;-77
2021/12/03 11:00:42;;;;;;;19.90;8.73;;;3.40;99.90;;;;;;4981721;28;20133;-76
2021/12/03 11:06:26;;;;;;;17.35;8.60;;;3.50;99.90;;;;;;4973662;28;20057;-75
2021/12/03 11:12:18;;;;;;;22.08;7.80;;;3.50;99.90;;;;;;4977277;28;20046;-76
2021/12/03 11:27:13;;;;;;;18.40;6.63;;;3.50;99.90;;;;;;4974923;28;20141;-77
2021/12/03 11:37:40;;;;;;;11.23;6.70;;;3.40;99.90;;;;;;4955475;28;20413;-76
2021/12/03 11:59:37;;;;;;;15.18;6.90;;;3.40;99.90;;;;;;4982507;28;20042;-76
2021/12/03 12:05:34;;;;;;;14.68;6.28;;;3.40;99.90;;;;;;4969925;28;20500;-76
2021/12/03 12:08:31;;;;;;;14.55;5.85;;;3.40;99.90;;;;;;4979694;28;20058;-75
2021/12/03 12:11:23;;;;;;;13.23;5.43;;;3.40;99.90;;;;;;4971434;28;20051;-75
2021/12/03 12:16:35;;;;;;;15.43;5.70;;;3.40;99.90;;;;;;4973481;28;20058;-77
2021/12/03 12:28:56;;;;;;;13.45;5.45;;;3.40;99.90;;;;;;4977171;28;20050;-77
2021/12/03 12:32:23;;;;;;;12.73;5.32;;;3.30;99.90;;;;;;4980907;28;20042;-77
2021/12/03 12:46:49;;;;;;;11.02;5.78;;;3.30;99.90;;;;;;4993809;28;20562;-77
2021/12/03 14:03:01;;;;;;;14.13;6.80;;;3.60;99.90;;;;;;4996600;28;20133;-76
2021/12/03 14:05:58;;;;;;;9.90;6.00;;;3.60;99.90;;;;;;4982360;28;20078;-77
2021/12/03 14:15:11;;;;;;;14.07;5.90;;;3.70;99.90;;;;;;4986655;28;20058;-76
2021/12/03 14:29:56;;;;;;;13.75;6.32;;;3.90;99.90;;;;;;4981940;28;20000;-77
2021/12/03 14:44:25;;;;;;;10.32;5.70;;;3.90;99.90;;;;;;4975062;28;20043;-78
2021/12/03 14:52:57;;;;;;;12.05;5.60;;;4.00;99.90;;;;;;4994003;28;20114;-77
2021/12/03 14:55:29;;;;;;;12.85;6.47;;;4.00;99.90;;;;;;4975487;28;20534;-77
2021/12/03 14:58:10;;;;;;;11.60;5.85;;;4.00;99.90;;;;;;4977256;28;20129;-77
2021/12/03 15:08:20;;;;;;;15.15;6.43;;;4.00;99.90;;;;;;4973500;28;20051;-78
2021/12/03 15:11:16;;;;;;;13.50;7.10;;;4.00;99.90;;;;;;4974503;28;20039;-78
2021/12/03 15:27:04;;;;;;;11.98;7.70;;;4.00;99.90;;;;;;4971913;28;20063;-77
2021/12/03 15:30:07;;;;;;;14.88;8.00;;;4.10;99.90;;;;;;4977616;28;20055;-77
2021/12/03 15:35:06;;;;;;;13.98;9.02;;;4.00;99.90;;;;;;4973990;28;20050;-78
2021/12/03 15:40:22;;;;;;;17.23;9.75;;;4.00;99.90;;;;;;4973323;28;20050;-77
2021/12/03 15:54:25;;;;;;;15.23;11.90;;;3.90;99.90;;;;;;4972977;28;19918;-79
2021/12/03 16:04:53;;;;;;;17.08;13.70;;;3.90;99.90;;;;;;4992492;28;20054;-77
2021/12/03 16:12:47;;;;;;;19.20;14.98;;;3.90;99.90;;;;;;4978922;28;20407;-78
2021/12/03 16:18:28;;;;;;;17.77;15.00;;;3.90;99.90;;;;;;4978957;28;20046;-76
2021/12/03 16:21:01;;;;;;;18.42;15.32;;;3.90;99.90;;;;;;4975043;28;20100;-77
2021/12/03 16:23:40;;;;;;;18.40;16.15;;;3.90;99.90;;;;;;4977450;28;20053;-77
2021/12/03 16:50:51;;;;;;;24.55;18.23;;;3.90;99.90;;;;;;4972681;28;20108;-77
2021/12/03 16:53:27;;;;;;;23.50;19.55;;;3.90;99.90;;;;;;4981300;28;20073;-75
2021/12/03 16:56:08;;;;;;;26.63;19.80;;;3.90;99.90;;;;;;4971620;28;20445;-77
2021/12/03 16:58:35;;;;;;;23.92;19.17;;;3.90;99.90;;;;;;4973341;28;20045;-76
2021/12/03 17:01:30;;;;;;;25.73;19.90;;;3.90;99.90;;;;;;4986184;28;20070;-77
2021/12/03 17:44:28;;;;;;;25.58;19.55;;;4.00;99.90;;;;;;4977706;28;20051;-78
2021/12/03 17:48:57;;;;;;;27.58;20.30;;;4.00;99.90;;;;;;4988659;28;20361;-77
2021/12/03 17:54:24;;;;;;;25.48;19.63;;;4.00;99.90;;;;;;4975405;28;20130;-77
2021/12/03 17:56:54;;;;;;;26.33;19.33;;;4.00;99.90;;;;;;4974883;28;20548;-77
2021/12/03 17:59:32;;;;;;;26.75;19.15;;;4.00;99.90;;;;;;4975158;28;20101;-78
2021/12/03 18:02:15;;;;;;;27.55;19.42;;;4.00;99.90;;;;;;4974874;28;20083;-77
2021/12/03 18:07:47;;;;;;;;;;;4.00;99.90;;;;;;4974902;28;20061;-77
2021/12/03 18:46:01;;;;;;;32.75;21.65;;;4.10;99.90;;;;;;4981309;28;20086;-76
2021/12/03 18:51:19;;;;;;;36.05;24.08;;;4.10;99.90;;;;;;4977607;28;20116;-77
2021/12/03 18:56:21;;;;;;;33.25;23.02;;;4.10;99.90;;;;;;4987482;28;20051;-77
2021/12/03 18:58:55;;;;;;;35.80;22.75;;;4.10;99.90;;;;;;4972918;28;20081;-78
2021/12/03 19:01:26;;;;;;;38.20;24.85;;;4.20;99.90;;;;;;4979123;28;20151;-77
2021/12/03 19:06:37;;;;;;;37.20;23.88;;;4.20;99.90;;;;;;4987739;28;20047;-77
2021/12/03 19:09:14;;;;;;;37.63;25.10;;;4.20;99.90;;;;;;4989742;28;20069;-76
2021/12/03 19:11:50;;;;;;;38.13;24.85;;;4.20;99.90;;;;;;4981892;28;20560;-76
2021/12/03 19:14:16;;;;;;;36.10;23.02;;;4.20;99.90;;;;;;4975217;28;20087;-77
2021/12/03 19:16:42;;;;;;;37.47;25.63;;;4.20;99.90;;;;;;4989325;28;20049;-77
2021/12/03 19:19:09;;;;;;;37.60;25.33;;;4.20;99.90;;;;;;4987815;28;20370;-77
2021/12/03 19:21:42;;;;;;;45.90;28.88;;;4.20;99.90;;;;;;4987692;28;20042;-77
2021/12/03 19:24:09;;;;;;;39.53;24.27;;;4.20;99.90;;;;;;4971746;28;20157;-76
2021/12/03 19:26:42;;;;;;;41.47;27.08;;;4.20;99.90;;;;;;4984925;28;20039;-77
2021/12/03 19:29:08;;;;;;;42.33;27.02;;;4.20;99.90;;;;;;4984541;28;20035;-76
2021/12/03 19:31:33;;;;;;;41.53;27.02;;;4.20;99.90;;;;;;4990120;28;20381;-77
2021/12/03 19:33:59;;;;;;;43.20;28.42;;;4.20;99.90;;;;;;4986698;28;20069;-75
2021/12/03 19:36:26;;;;;;;45.75;27.60;;;4.20;99.90;;;;;;4987719;28;20066;-76
2021/12/03 19:38:55;;;;;;;42.08;27.05;;;4.20;99.90;;;;;;4984995;28;20042;-77
2021/12/03 19:41:39;;;;;;;46.25;28.05;;;4.20;99.90;;;;;;4986236;28;20039;-76